sensor_id;sensor_type;location;lat;lon;timestamp;P1;durP1;ratioP1;P2;durP2;ratioP2
40807;SDS011;26523;52.504;13.498;2022-10-26T00:00:24;12.90;;;5.50;;
40807;SDS011;26523;52.504;13.498;2022-10-26T00:02:52;10.52;;;5.13;;
40807;SDS011;26523;52.504;13.498;2022-10-26T00:05:19;15.23;;;5.28;;
40807;SDS011;26523;52.504;13.498;2022-10-26T00:07:46;19.90;;;5.18;;
40807;SDS011;26523;52.504;13.498;2022-10-26T00:10:11;9.38;;;5.38;;
40807;SDS011;26523;52.504;13.498;2022-10-26T00:12:37;10.35;;;5.28;;
40807;SDS011;26523;52.504;13.498;2022-10-26T00:15:03;14.07;;;5.25;;
40807;SDS011;26523;52.504;13.498;2022-10-26T00:17:29;20.45;;;5.75;;
40807;SDS011;26523;52.504;13.498;2022-10-26T00:19:54;13.68;;;5.22;;
40807;SDS011;26523;52.504;13.498;2022-10-26T00:22:21;11.25;;;5.13;;
40807;SDS011;26523;52.504;13.498;2022-10-26T00:24:47;10.05;;;4.55;;
40807;SDS011;26523;52.504;13.498;2022-10-26T00:27:13;10.07;;;5.03;;
40807;SDS011;26523;52.504;13.498;2022-10-26T00:29:38;15.75;;;5.97;;
40807;SDS011;26523;52.504;13.498;2022-10-26T00:32:04;11.73;;;5.30;;
40807;SDS011;26523;52.504;13.498;2022-10-26T00:34:30;13.15;;;5.35;;
40807;SDS011;26523;52.504;13.498;2022-10-26T00:36:56;11.55;;;5.18;;
40807;SDS011;26523;52.504;13.498;2022-10-26T00:39:22;13.02;;;5.45;;
40807;SDS011;26523;52.504;13.498;2022-10-26T00:41:47;14.43;;;5.72;;
40807;SDS011;26523;52.504;13.498;2022-10-26T00:49:41;10.75;;;5.15;;
40807;SDS011;26523;52.504;13.498;2022-10-26T00:52:10;12.18;;;4.80;;
40807;SDS011;26523;52.504;13.498;2022-10-26T00:54:37;9.57;;;5.20;;
40807;SDS011;26523;52.504;13.498;2022-10-26T00:57:04;16.48;;;5.75;;
40807;SDS011;26523;52.504;13.498;2022-10-26T00:59:30;13.13;;;5.32;;
40807;SDS011;26523;52.504;13.498;2022-10-26T01:01:56;15.15;;;6.45;;
40807;SDS011;26523;52.504;13.498;2022-10-26T01:04:22;14.05;;;5.18;;
40807;SDS011;26523;52.504;13.498;2022-10-26T01:06:48;13.43;;;5.07;;
40807;SDS011;26523;52.504;13.498;2022-10-26T01:09:14;12.95;;;5.00;;
40807;SDS011;26523;52.504;13.498;2022-10-26T01:11:40;13.65;;;5.47;;
40807;SDS011;26523;52.504;13.498;2022-10-26T01:14:07;11.70;;;5.60;;
40807;SDS011;26523;52.504;13.498;2022-10-26T01:16:42;13.90;;;6.45;;
40807;SDS011;26523;52.504;13.498;2022-10-26T01:22:17;14.13;;;5.13;;
40807;SDS011;26523;52.504;13.498;2022-10-26T01:24:53;11.02;;;4.70;;
40807;SDS011;26523;52.504;13.498;2022-10-26T01:27:40;12.30;;;4.78;;
40807;SDS011;26523;52.504;13.498;2022-10-26T01:40:54;13.48;;;5.95;;
40807;SDS011;26523;52.504;13.498;2022-10-26T01:43:34;14.05;;;5.20;;
40807;SDS011;26523;52.504;13.498;2022-10-26T01:46:03;14.40;;;5.25;;
40807;SDS011;26523;52.504;13.498;2022-10-26T01:48:31;12.48;;;4.57;;
40807;SDS011;26523;52.504;13.498;2022-10-26T01:50:58;10.98;;;4.60;;
40807;SDS011;26523;52.504;13.498;2022-10-26T01:53:25;16.55;;;4.90;;
40807;SDS011;26523;52.504;13.498;2022-10-26T01:55:53;10.20;;;5.03;;
40807;SDS011;26523;52.504;13.498;2022-10-26T01:58:29;12.63;;;4.72;;
40807;SDS011;26523;52.504;13.498;2022-10-26T02:01:22;10.10;;;5.30;;
40807;SDS011;26523;52.504;13.498;2022-10-26T02:06:55;10.65;;;5.05;;
40807;SDS011;26523;52.504;13.498;2022-10-26T02:09:50;15.80;;;5.38;;
40807;SDS011;26523;52.504;13.498;2022-10-26T02:12:37;10.77;;;5.18;;
40807;SDS011;26523;52.504;13.498;2022-10-26T02:15:28;9.05;;;4.20;;
40807;SDS011;26523;52.504;13.498;2022-10-26T02:21:12;12.07;;;4.60;;
40807;SDS011;26523;52.504;13.498;2022-10-26T02:26:10;16.60;;;5.20;;
40807;SDS011;26523;52.504;13.498;2022-10-26T02:28:41;12.45;;;5.32;;
40807;SDS011;26523;52.504;13.498;2022-10-26T02:31:10;10.18;;;4.40;;
40807;SDS011;26523;52.504;13.498;2022-10-26T02:33:39;8.10;;;4.70;;
40807;SDS011;26523;52.504;13.498;2022-10-26T02:36:10;11.23;;;5.15;;
40807;SDS011;26523;52.504;13.498;2022-10-26T02:38:39;10.18;;;4.50;;
40807;SDS011;26523;52.504;13.498;2022-10-26T02:41:07;14.43;;;5.20;;
40807;SDS011;26523;52.504;13.498;2022-10-26T02:43:36;11.55;;;4.97;;
40807;SDS011;26523;52.504;13.498;2022-10-26T02:46:11;10.18;;;4.53;;
40807;SDS011;26523;52.504;13.498;2022-10-26T02:48:41;11.13;;;5.10;;
40807;SDS011;26523;52.504;13.498;2022-10-26T02:51:14;12.65;;;5.03;;
40807;SDS011;26523;52.504;13.498;2022-10-26T02:53:55;12.23;;;4.65;;
40807;SDS011;26523;52.504;13.498;2022-10-26T02:56:30;12.07;;;5.32;;
40807;SDS011;26523;52.504;13.498;2022-10-26T02:59:05;14.95;;;5.10;;
40807;SDS011;26523;52.504;13.498;2022-10-26T03:01:33;10.15;;;4.85;;
40807;SDS011;26523;52.504;13.498;2022-10-26T03:03:59;12.80;;;5.43;;
40807;SDS011;26523;52.504;13.498;2022-10-26T03:06:25;11.45;;;5.03;;
40807;SDS011;26523;52.504;13.498;2022-10-26T03:08:51;11.18;;;5.38;;
40807;SDS011;26523;52.504;13.498;2022-10-26T03:11:17;11.57;;;4.75;;
40807;SDS011;26523;52.504;13.498;2022-10-26T03:13:43;9.93;;;4.43;;
40807;SDS011;26523;52.504;13.498;2022-10-26T03:16:08;10.40;;;4.85;;
40807;SDS011;26523;52.504;13.498;2022-10-26T03:18:34;10.60;;;5.40;;
40807;SDS011;26523;52.504;13.498;2022-10-26T03:21:00;10.98;;;4.63;;
40807;SDS011;26523;52.504;13.498;2022-10-26T03:23:26;8.40;;;4.00;;
40807;SDS011;26523;52.504;13.498;2022-10-26T03:25:55;11.27;;;5.35;;
40807;SDS011;26523;52.504;13.498;2022-10-26T03:28:21;12.93;;;5.25;;
40807;SDS011;26523;52.504;13.498;2022-10-26T03:30:47;10.15;;;4.15;;
40807;SDS011;26523;52.504;13.498;2022-10-26T03:33:12;14.85;;;5.05;;
40807;SDS011;26523;52.504;13.498;2022-10-26T03:35:38;11.13;;;4.45;;
40807;SDS011;26523;52.504;13.498;2022-10-26T03:38:03;11.45;;;5.53;;
40807;SDS011;26523;52.504;13.498;2022-10-26T03:40:29;11.27;;;4.55;;
40807;SDS011;26523;52.504;13.498;2022-10-26T03:42:55;10.95;;;3.85;;
40807;SDS011;26523;52.504;13.498;2022-10-26T03:45:20;9.70;;;4.60;;
40807;SDS011;26523;52.504;13.498;2022-10-26T03:47:46;14.95;;;4.70;;
40807;SDS011;26523;52.504;13.498;2022-10-26T03:50:14;7.57;;;4.13;;
40807;SDS011;26523;52.504;13.498;2022-10-26T03:52:41;7.82;;;3.95;;
40807;SDS011;26523;52.504;13.498;2022-10-26T03:55:08;8.80;;;4.13;;
40807;SDS011;26523;52.504;13.498;2022-10-26T03:57:35;10.68;;;4.38;;
40807;SDS011;26523;52.504;13.498;2022-10-26T04:00:08;10.27;;;4.43;;
40807;SDS011;26523;52.504;13.498;2022-10-26T04:02:36;10.20;;;4.28;;
40807;SDS011;26523;52.504;13.498;2022-10-26T04:05:01;11.82;;;4.55;;
40807;SDS011;26523;52.504;13.498;2022-10-26T04:07:27;9.73;;;4.43;;
40807;SDS011;26523;52.504;13.498;2022-10-26T04:09:53;10.25;;;4.20;;
40807;SDS011;26523;52.504;13.498;2022-10-26T04:12:18;8.57;;;4.15;;
40807;SDS011;26523;52.504;13.498;2022-10-26T04:14:44;8.27;;;4.25;;
40807;SDS011;26523;52.504;13.498;2022-10-26T04:17:09;11.77;;;4.30;;
40807;SDS011;26523;52.504;13.498;2022-10-26T04:19:35;10.68;;;4.15;;
40807;SDS011;26523;52.504;13.498;2022-10-26T04:22:01;9.70;;;3.78;;
40807;SDS011;26523;52.504;13.498;2022-10-26T04:24:26;10.02;;;5.13;;
40807;SDS011;26523;52.504;13.498;2022-10-26T04:26:52;9.40;;;3.63;;
40807;SDS011;26523;52.504;13.498;2022-10-26T04:29:17;13.57;;;4.65;;
40807;SDS011;26523;52.504;13.498;2022-10-26T04:31:43;7.38;;;3.20;;
40807;SDS011;26523;52.504;13.498;2022-10-26T04:34:08;10.27;;;4.05;;
40807;SDS011;26523;52.504;13.498;2022-10-26T04:36:34;13.10;;;4.85;;
40807;SDS011;26523;52.504;13.498;2022-10-26T04:39:00;7.80;;;3.67;;
40807;SDS011;26523;52.504;13.498;2022-10-26T04:41:26;7.85;;;3.70;;
40807;SDS011;26523;52.504;13.498;2022-10-26T04:43:51;10.60;;;3.80;;
40807;SDS011;26523;52.504;13.498;2022-10-26T04:46:17;9.48;;;4.05;;
40807;SDS011;26523;52.504;13.498;2022-10-26T04:48:42;7.75;;;3.97;;
40807;SDS011;26523;52.504;13.498;2022-10-26T04:51:08;8.25;;;3.58;;
40807;SDS011;26523;52.504;13.498;2022-10-26T04:53:33;6.85;;;3.30;;
40807;SDS011;26523;52.504;13.498;2022-10-26T04:56:00;8.80;;;2.92;;
40807;SDS011;26523;52.504;13.498;2022-10-26T04:58:26;10.50;;;4.43;;
40807;SDS011;26523;52.504;13.498;2022-10-26T05:00:53;9.63;;;4.90;;
40807;SDS011;26523;52.504;13.498;2022-10-26T05:03:18;8.50;;;4.07;;
40807;SDS011;26523;52.504;13.498;2022-10-26T05:05:44;9.23;;;4.53;;
40807;SDS011;26523;52.504;13.498;2022-10-26T05:08:11;8.27;;;3.63;;
40807;SDS011;26523;52.504;13.498;2022-10-26T05:10:37;7.03;;;3.58;;
40807;SDS011;26523;52.504;13.498;2022-10-26T05:13:03;11.40;;;4.43;;
40807;SDS011;26523;52.504;13.498;2022-10-26T05:15:29;12.13;;;3.75;;
40807;SDS011;26523;52.504;13.498;2022-10-26T05:17:59;6.63;;;3.20;;
40807;SDS011;26523;52.504;13.498;2022-10-26T05:20:27;8.50;;;3.92;;
40807;SDS011;26523;52.504;13.498;2022-10-26T05:22:58;7.90;;;3.45;;
40807;SDS011;26523;52.504;13.498;2022-10-26T05:25:26;6.30;;;3.53;;
40807;SDS011;26523;52.504;13.498;2022-10-26T05:27:56;10.73;;;3.20;;
40807;SDS011;26523;52.504;13.498;2022-10-26T05:30:25;7.35;;;3.28;;
40807;SDS011;26523;52.504;13.498;2022-10-26T05:32:52;8.90;;;4.10;;
40807;SDS011;26523;52.504;13.498;2022-10-26T05:35:19;8.85;;;3.75;;
40807;SDS011;26523;52.504;13.498;2022-10-26T05:37:44;12.32;;;4.53;;
40807;SDS011;26523;52.504;13.498;2022-10-26T05:40:10;8.70;;;4.03;;
40807;SDS011;26523;52.504;13.498;2022-10-26T05:42:36;10.77;;;3.88;;
40807;SDS011;26523;52.504;13.498;2022-10-26T05:45:02;9.75;;;4.45;;
40807;SDS011;26523;52.504;13.498;2022-10-26T05:47:27;10.50;;;4.88;;
40807;SDS011;26523;52.504;13.498;2022-10-26T05:49:53;16.50;;;4.47;;
40807;SDS011;26523;52.504;13.498;2022-10-26T05:52:18;10.10;;;3.88;;
40807;SDS011;26523;52.504;13.498;2022-10-26T05:54:44;11.98;;;4.60;;
40807;SDS011;26523;52.504;13.498;2022-10-26T05:57:10;11.82;;;4.00;;
40807;SDS011;26523;52.504;13.498;2022-10-26T05:59:36;12.73;;;4.63;;
40807;SDS011;26523;52.504;13.498;2022-10-26T06:04:40;8.75;;;4.00;;
40807;SDS011;26523;52.504;13.498;2022-10-26T06:07:12;15.60;;;4.38;;
40807;SDS011;26523;52.504;13.498;2022-10-26T06:09:40;11.05;;;4.20;;
40807;SDS011;26523;52.504;13.498;2022-10-26T06:12:06;10.43;;;4.57;;
40807;SDS011;26523;52.504;13.498;2022-10-26T06:14:33;12.05;;;4.40;;
40807;SDS011;26523;52.504;13.498;2022-10-26T06:22:36;14.07;;;5.30;;
40807;SDS011;26523;52.504;13.498;2022-10-26T06:30:42;10.73;;;3.80;;
40807;SDS011;26523;52.504;13.498;2022-10-26T06:33:08;11.30;;;4.30;;
40807;SDS011;26523;52.504;13.498;2022-10-26T06:35:38;11.50;;;4.47;;
40807;SDS011;26523;52.504;13.498;2022-10-26T06:38:10;8.93;;;4.47;;
40807;SDS011;26523;52.504;13.498;2022-10-26T06:40:44;11.90;;;4.35;;
40807;SDS011;26523;52.504;13.498;2022-10-26T06:43:22;10.52;;;4.47;;
40807;SDS011;26523;52.504;13.498;2022-10-26T06:45:55;16.92;;;5.40;;
40807;SDS011;26523;52.504;13.498;2022-10-26T06:51:30;12.48;;;4.97;;
40807;SDS011;26523;52.504;13.498;2022-10-26T06:56:52;11.73;;;4.70;;
40807;SDS011;26523;52.504;13.498;2022-10-26T06:59:36;16.25;;;5.10;;
40807;SDS011;26523;52.504;13.498;2022-10-26T07:02:08;18.55;;;5.35;;
40807;SDS011;26523;52.504;13.498;2022-10-26T07:04:35;10.82;;;4.95;;
40807;SDS011;26523;52.504;13.498;2022-10-26T07:07:00;15.13;;;5.10;;
40807;SDS011;26523;52.504;13.498;2022-10-26T07:09:27;17.80;;;5.40;;
40807;SDS011;26523;52.504;13.498;2022-10-26T07:11:52;13.57;;;4.90;;
40807;SDS011;26523;52.504;13.498;2022-10-26T07:14:18;10.93;;;4.47;;
40807;SDS011;26523;52.504;13.498;2022-10-26T07:16:43;12.00;;;4.60;;
40807;SDS011;26523;52.504;13.498;2022-10-26T07:19:09;13.50;;;4.88;;
40807;SDS011;26523;52.504;13.498;2022-10-26T07:21:35;14.48;;;4.50;;
40807;SDS011;26523;52.504;13.498;2022-10-26T07:24:00;9.82;;;3.83;;
40807;SDS011;26523;52.504;13.498;2022-10-26T07:26:26;8.85;;;4.05;;
40807;SDS011;26523;52.504;13.498;2022-10-26T07:28:52;9.45;;;4.18;;
40807;SDS011;26523;52.504;13.498;2022-10-26T07:31:17;9.38;;;4.28;;
40807;SDS011;26523;52.504;13.498;2022-10-26T07:33:43;6.85;;;3.10;;
40807;SDS011;26523;52.504;13.498;2022-10-26T07:36:09;11.23;;;3.53;;
40807;SDS011;26523;52.504;13.498;2022-10-26T07:38:36;9.57;;;4.30;;
40807;SDS011;26523;52.504;13.498;2022-10-26T07:41:02;10.45;;;4.47;;
40807;SDS011;26523;52.504;13.498;2022-10-26T07:43:28;11.70;;;4.82;;
40807;SDS011;26523;52.504;13.498;2022-10-26T07:45:54;13.88;;;4.30;;
40807;SDS011;26523;52.504;13.498;2022-10-26T07:48:20;12.82;;;4.50;;
40807;SDS011;26523;52.504;13.498;2022-10-26T07:50:45;9.80;;;4.55;;
40807;SDS011;26523;52.504;13.498;2022-10-26T07:53:11;10.10;;;4.78;;
40807;SDS011;26523;52.504;13.498;2022-10-26T07:55:37;12.98;;;4.53;;
40807;SDS011;26523;52.504;13.498;2022-10-26T07:58:02;13.43;;;5.80;;
40807;SDS011;26523;52.504;13.498;2022-10-26T08:00:28;10.90;;;4.80;;
40807;SDS011;26523;52.504;13.498;2022-10-26T08:02:54;16.45;;;4.93;;
40807;SDS011;26523;52.504;13.498;2022-10-26T08:05:20;10.18;;;4.20;;
40807;SDS011;26523;52.504;13.498;2022-10-26T08:07:45;13.15;;;4.65;;
40807;SDS011;26523;52.504;13.498;2022-10-26T08:10:12;9.25;;;4.95;;
40807;SDS011;26523;52.504;13.498;2022-10-26T08:12:38;10.55;;;4.78;;
40807;SDS011;26523;52.504;13.498;2022-10-26T08:15:05;10.90;;;4.78;;
40807;SDS011;26523;52.504;13.498;2022-10-26T08:17:31;10.13;;;4.53;;
40807;SDS011;26523;52.504;13.498;2022-10-26T08:19:57;9.63;;;4.78;;
40807;SDS011;26523;52.504;13.498;2022-10-26T08:22:23;8.65;;;4.47;;
40807;SDS011;26523;52.504;13.498;2022-10-26T08:24:49;9.93;;;4.57;;
40807;SDS011;26523;52.504;13.498;2022-10-26T08:27:15;7.97;;;4.35;;
40807;SDS011;26523;52.504;13.498;2022-10-26T08:29:40;9.45;;;4.63;;
40807;SDS011;26523;52.504;13.498;2022-10-26T08:32:06;8.20;;;4.03;;
40807;SDS011;26523;52.504;13.498;2022-10-26T08:34:32;9.27;;;4.38;;
40807;SDS011;26523;52.504;13.498;2022-10-26T08:36:58;7.93;;;3.92;;
40807;SDS011;26523;52.504;13.498;2022-10-26T08:39:23;9.13;;;4.55;;
40807;SDS011;26523;52.504;13.498;2022-10-26T08:41:54;9.60;;;4.70;;
40807;SDS011;26523;52.504;13.498;2022-10-26T08:44:34;9.98;;;4.63;;
40807;SDS011;26523;52.504;13.498;2022-10-26T08:47:18;9.65;;;4.25;;
40807;SDS011;26523;52.504;13.498;2022-10-26T08:49:59;8.18;;;4.38;;
40807;SDS011;26523;52.504;13.498;2022-10-26T08:55:14;8.98;;;4.93;;
40807;SDS011;26523;52.504;13.498;2022-10-26T08:57:43;8.55;;;4.05;;
40807;SDS011;26523;52.504;13.498;2022-10-26T09:02:39;9.60;;;4.70;;
40807;SDS011;26523;52.504;13.498;2022-10-26T09:05:05;9.88;;;4.93;;
40807;SDS011;26523;52.504;13.498;2022-10-26T09:07:49;11.35;;;4.32;;
40807;SDS011;26523;52.504;13.498;2022-10-26T09:13:09;7.63;;;4.20;;
40807;SDS011;26523;52.504;13.498;2022-10-26T09:18:33;12.65;;;4.18;;
40807;SDS011;26523;52.504;13.498;2022-10-26T09:26:03;8.05;;;3.97;;
40807;SDS011;26523;52.504;13.498;2022-10-26T09:28:37;6.78;;;4.10;;
40807;SDS011;26523;52.504;13.498;2022-10-26T09:31:05;7.30;;;4.20;;
40807;SDS011;26523;52.504;13.498;2022-10-26T09:33:38;10.38;;;4.40;;
40807;SDS011;26523;52.504;13.498;2022-10-26T09:36:05;9.38;;;4.47;;
40807;SDS011;26523;52.504;13.498;2022-10-26T09:38:50;9.35;;;4.10;;
40807;SDS011;26523;52.504;13.498;2022-10-26T09:41:21;10.02;;;5.20;;
40807;SDS011;26523;52.504;13.498;2022-10-26T09:44:14;8.88;;;4.47;;
40807;SDS011;26523;52.504;13.498;2022-10-26T09:46:48;7.15;;;4.28;;
40807;SDS011;26523;52.504;13.498;2022-10-26T09:49:22;11.30;;;4.25;;
40807;SDS011;26523;52.504;13.498;2022-10-26T09:51:54;10.50;;;4.80;;
40807;SDS011;26523;52.504;13.498;2022-10-26T09:54:20;9.48;;;4.25;;
40807;SDS011;26523;52.504;13.498;2022-10-26T09:56:47;7.85;;;4.00;;
40807;SDS011;26523;52.504;13.498;2022-10-26T09:59:17;13.05;;;5.18;;
40807;SDS011;26523;52.504;13.498;2022-10-26T10:01:46;11.73;;;3.40;;
40807;SDS011;26523;52.504;13.498;2022-10-26T10:06:37;7.85;;;3.55;;
40807;SDS011;26523;52.504;13.498;2022-10-26T10:09:08;6.75;;;3.00;;
40807;SDS011;26523;52.504;13.498;2022-10-26T10:11:40;6.15;;;3.03;;
40807;SDS011;26523;52.504;13.498;2022-10-26T10:14:25;6.45;;;3.35;;
40807;SDS011;26523;52.504;13.498;2022-10-26T10:16:56;9.63;;;2.95;;
40807;SDS011;26523;52.504;13.498;2022-10-26T10:19:31;9.63;;;3.00;;
40807;SDS011;26523;52.504;13.498;2022-10-26T10:22:07;5.63;;;2.53;;
40807;SDS011;26523;52.504;13.498;2022-10-26T10:24:52;12.35;;;3.00;;
40807;SDS011;26523;52.504;13.498;2022-10-26T10:27:19;5.63;;;2.50;;
40807;SDS011;26523;52.504;13.498;2022-10-26T10:32:17;8.50;;;2.42;;
40807;SDS011;26523;52.504;13.498;2022-10-26T10:34:44;6.60;;;3.00;;
40807;SDS011;26523;52.504;13.498;2022-10-26T10:37:21;5.47;;;2.28;;
40807;SDS011;26523;52.504;13.498;2022-10-26T10:39:48;5.03;;;2.45;;
40807;SDS011;26523;52.504;13.498;2022-10-26T10:42:20;5.53;;;2.30;;
40807;SDS011;26523;52.504;13.498;2022-10-26T10:44:50;4.43;;;2.38;;
40807;SDS011;26523;52.504;13.498;2022-10-26T10:47:34;3.65;;;2.08;;
40807;SDS011;26523;52.504;13.498;2022-10-26T10:50:05;3.63;;;1.58;;
40807;SDS011;26523;52.504;13.498;2022-10-26T10:52:39;3.60;;;1.70;;
40807;SDS011;26523;52.504;13.498;2022-10-26T10:58:23;4.55;;;1.85;;
40807;SDS011;26523;52.504;13.498;2022-10-26T11:00:46;3.03;;;1.48;;
40807;SDS011;26523;52.504;13.498;2022-10-26T11:11:22;3.40;;;1.45;;
40807;SDS011;26523;52.504;13.498;2022-10-26T11:13:54;6.80;;;1.33;;
40807;SDS011;26523;52.504;13.498;2022-10-26T11:16:34;2.70;;;1.38;;
40807;SDS011;26523;52.504;13.498;2022-10-26T11:19:19;5.25;;;1.30;;
40807;SDS011;26523;52.504;13.498;2022-10-26T11:21:58;5.53;;;1.10;;
40807;SDS011;26523;52.504;13.498;2022-10-26T11:24:38;4.68;;;1.73;;
40807;SDS011;26523;52.504;13.498;2022-10-26T11:27:13;2.88;;;1.27;;
40807;SDS011;26523;52.504;13.498;2022-10-26T11:29:57;4.80;;;1.08;;
40807;SDS011;26523;52.504;13.498;2022-10-26T11:33:00;5.20;;;1.10;;
40807;SDS011;26523;52.504;13.498;2022-10-26T11:35:36;2.17;;;0.80;;
40807;SDS011;26523;52.504;13.498;2022-10-26T11:44:21;4.90;;;1.60;;
40807;SDS011;26523;52.504;13.498;2022-10-26T11:47:02;3.15;;;1.40;;
40807;SDS011;26523;52.504;13.498;2022-10-26T11:49:47;4.00;;;1.42;;
40807;SDS011;26523;52.504;13.498;2022-10-26T11:57:24;3.35;;;1.25;;
40807;SDS011;26523;52.504;13.498;2022-10-26T11:59:57;2.65;;;1.15;;
40807;SDS011;26523;52.504;13.498;2022-10-26T12:02:27;2.63;;;1.20;;
40807;SDS011;26523;52.504;13.498;2022-10-26T12:04:55;2.70;;;1.08;;
40807;SDS011;26523;52.504;13.498;2022-10-26T12:07:30;1.15;;;0.73;;
40807;SDS011;26523;52.504;13.498;2022-10-26T12:09:58;3.10;;;1.25;;
40807;SDS011;26523;52.504;13.498;2022-10-26T12:15:15;1.73;;;1.00;;
40807;SDS011;26523;52.504;13.498;2022-10-26T12:17:54;3.10;;;1.05;;
40807;SDS011;26523;52.504;13.498;2022-10-26T12:23:08;3.95;;;1.20;;
40807;SDS011;26523;52.504;13.498;2022-10-26T12:25:35;2.50;;;1.02;;
40807;SDS011;26523;52.504;13.498;2022-10-26T12:28:01;3.40;;;1.13;;
40807;SDS011;26523;52.504;13.498;2022-10-26T12:30:35;2.95;;;1.08;;
40807;SDS011;26523;52.504;13.498;2022-10-26T12:33:02;4.93;;;1.27;;
40807;SDS011;26523;52.504;13.498;2022-10-26T12:35:47;2.22;;;1.17;;
40807;SDS011;26523;52.504;13.498;2022-10-26T12:40:48;4.70;;;0.95;;
40807;SDS011;26523;52.504;13.498;2022-10-26T12:43:38;8.35;;;1.65;;
40807;SDS011;26523;52.504;13.498;2022-10-26T12:57:06;2.83;;;1.08;;
40807;SDS011;26523;52.504;13.498;2022-10-26T12:59:46;2.03;;;0.98;;
40807;SDS011;26523;52.504;13.498;2022-10-26T13:07:49;1.52;;;1.02;;
40807;SDS011;26523;52.504;13.498;2022-10-26T13:10:21;9.35;;;1.50;;
40807;SDS011;26523;52.504;13.498;2022-10-26T13:18:19;3.85;;;1.15;;
40807;SDS011;26523;52.504;13.498;2022-10-26T13:23:30;2.23;;;1.17;;
40807;SDS011;26523;52.504;13.498;2022-10-26T13:31:07;4.18;;;1.38;;
40807;SDS011;26523;52.504;13.498;2022-10-26T13:33:47;5.15;;;1.40;;
40807;SDS011;26523;52.504;13.498;2022-10-26T13:38:55;4.43;;;1.20;;
40807;SDS011;26523;52.504;13.498;2022-10-26T13:41:25;3.90;;;1.20;;
40807;SDS011;26523;52.504;13.498;2022-10-26T13:43:58;4.90;;;1.67;;
40807;SDS011;26523;52.504;13.498;2022-10-26T13:46:29;3.58;;;1.60;;
40807;SDS011;26523;52.504;13.498;2022-10-26T13:49:04;3.53;;;1.40;;
40807;SDS011;26523;52.504;13.498;2022-10-26T13:51:41;3.63;;;1.05;;
40807;SDS011;26523;52.504;13.498;2022-10-26T13:59:23;3.60;;;1.58;;
40807;SDS011;26523;52.504;13.498;2022-10-26T14:02:25;3.53;;;1.38;;
40807;SDS011;26523;52.504;13.498;2022-10-26T14:04:47;2.70;;;1.50;;
40807;SDS011;26523;52.504;13.498;2022-10-26T14:07:18;3.72;;;1.40;;
40807;SDS011;26523;52.504;13.498;2022-10-26T14:09:49;5.30;;;1.50;;
40807;SDS011;26523;52.504;13.498;2022-10-26T14:12:19;2.25;;;1.10;;
40807;SDS011;26523;52.504;13.498;2022-10-26T14:14:45;2.85;;;1.13;;
40807;SDS011;26523;52.504;13.498;2022-10-26T14:17:16;5.20;;;1.25;;
40807;SDS011;26523;52.504;13.498;2022-10-26T14:19:43;3.95;;;1.65;;
40807;SDS011;26523;52.504;13.498;2022-10-26T14:22:15;4.82;;;1.25;;
40807;SDS011;26523;52.504;13.498;2022-10-26T14:24:49;4.47;;;1.40;;
40807;SDS011;26523;52.504;13.498;2022-10-26T14:27:16;3.33;;;1.42;;
40807;SDS011;26523;52.504;13.498;2022-10-26T14:29:45;2.20;;;1.17;;
40807;SDS011;26523;52.504;13.498;2022-10-26T14:32:28;3.08;;;1.50;;
40807;SDS011;26523;52.504;13.498;2022-10-26T14:34:57;3.40;;;1.98;;
40807;SDS011;26523;52.504;13.498;2022-10-26T14:37:24;3.90;;;1.50;;
40807;SDS011;26523;52.504;13.498;2022-10-26T14:40:17;1.63;;;0.95;;
40807;SDS011;26523;52.504;13.498;2022-10-26T14:42:48;2.42;;;1.25;;
40807;SDS011;26523;52.504;13.498;2022-10-26T14:45:28;1.92;;;1.25;;
40807;SDS011;26523;52.504;13.498;2022-10-26T14:47:56;6.65;;;1.63;;
40807;SDS011;26523;52.504;13.498;2022-10-26T14:50:23;2.33;;;0.95;;
40807;SDS011;26523;52.504;13.498;2022-10-26T14:52:56;3.33;;;1.45;;
40807;SDS011;26523;52.504;13.498;2022-10-26T14:55:24;2.67;;;1.48;;
40807;SDS011;26523;52.504;13.498;2022-10-26T14:57:51;3.30;;;1.73;;
40807;SDS011;26523;52.504;13.498;2022-10-26T15:00:29;4.25;;;1.67;;
40807;SDS011;26523;52.504;13.498;2022-10-26T15:02:55;4.85;;;1.88;;
40807;SDS011;26523;52.504;13.498;2022-10-26T15:07:48;5.32;;;1.60;;
40807;SDS011;26523;52.504;13.498;2022-10-26T15:13:19;5.65;;;2.00;;
40807;SDS011;26523;52.504;13.498;2022-10-26T15:15:49;8.40;;;2.00;;
40807;SDS011;26523;52.504;13.498;2022-10-26T15:18:36;9.75;;;2.10;;
40807;SDS011;26523;52.504;13.498;2022-10-26T15:21:02;5.85;;;2.13;;
40807;SDS011;26523;52.504;13.498;2022-10-26T15:23:47;4.47;;;1.85;;
40807;SDS011;26523;52.504;13.498;2022-10-26T15:26:13;8.50;;;3.38;;
40807;SDS011;26523;52.504;13.498;2022-10-26T15:28:39;8.65;;;3.20;;
40807;SDS011;26523;52.504;13.498;2022-10-26T15:33:34;7.07;;;2.08;;
40807;SDS011;26523;52.504;13.498;2022-10-26T15:38:33;6.10;;;2.53;;
40807;SDS011;26523;52.504;13.498;2022-10-26T15:40:59;5.55;;;2.08;;
40807;SDS011;26523;52.504;13.498;2022-10-26T15:43:24;5.70;;;2.30;;
40807;SDS011;26523;52.504;13.498;2022-10-26T15:45:50;5.38;;;1.90;;
40807;SDS011;26523;52.504;13.498;2022-10-26T15:48:23;4.50;;;1.88;;
40807;SDS011;26523;52.504;13.498;2022-10-26T15:50:52;10.90;;;1.77;;
40807;SDS011;26523;52.504;13.498;2022-10-26T15:53:22;5.72;;;2.28;;
40807;SDS011;26523;52.504;13.498;2022-10-26T15:55:51;7.75;;;2.33;;
40807;SDS011;26523;52.504;13.498;2022-10-26T15:58:19;5.13;;;2.50;;
40807;SDS011;26523;52.504;13.498;2022-10-26T16:00:45;11.60;;;4.10;;
40807;SDS011;26523;52.504;13.498;2022-10-26T16:03:19;25.48;;;8.77;;
40807;SDS011;26523;52.504;13.498;2022-10-26T16:05:47;20.88;;;8.70;;
40807;SDS011;26523;52.504;13.498;2022-10-26T16:08:19;13.40;;;5.78;;
40807;SDS011;26523;52.504;13.498;2022-10-26T16:10:44;13.77;;;4.22;;
40807;SDS011;26523;52.504;13.498;2022-10-26T16:13:11;12.60;;;5.22;;
40807;SDS011;26523;52.504;13.498;2022-10-26T16:15:37;13.32;;;6.13;;
40807;SDS011;26523;52.504;13.498;2022-10-26T16:18:03;12.40;;;4.80;;
40807;SDS011;26523;52.504;13.498;2022-10-26T16:20:29;8.75;;;4.22;;
40807;SDS011;26523;52.504;13.498;2022-10-26T16:22:55;9.55;;;3.30;;
40807;SDS011;26523;52.504;13.498;2022-10-26T16:25:21;8.98;;;3.42;;
40807;SDS011;26523;52.504;13.498;2022-10-26T16:27:49;16.02;;;6.75;;
40807;SDS011;26523;52.504;13.498;2022-10-26T16:30:15;15.00;;;6.28;;
40807;SDS011;26523;52.504;13.498;2022-10-26T16:32:41;16.88;;;5.82;;
40807;SDS011;26523;52.504;13.498;2022-10-26T16:35:08;7.82;;;3.85;;
40807;SDS011;26523;52.504;13.498;2022-10-26T16:37:37;8.95;;;3.67;;
40807;SDS011;26523;52.504;13.498;2022-10-26T16:40:04;6.75;;;3.25;;
40807;SDS011;26523;52.504;13.498;2022-10-26T16:42:30;8.07;;;2.97;;
40807;SDS011;26523;52.504;13.498;2022-10-26T16:44:57;8.35;;;2.85;;
40807;SDS011;26523;52.504;13.498;2022-10-26T16:47:22;7.18;;;3.28;;
40807;SDS011;26523;52.504;13.498;2022-10-26T16:49:48;9.27;;;4.38;;
40807;SDS011;26523;52.504;13.498;2022-10-26T16:52:14;10.68;;;4.18;;
40807;SDS011;26523;52.504;13.498;2022-10-26T16:54:40;10.27;;;3.90;;
40807;SDS011;26523;52.504;13.498;2022-10-26T16:57:06;9.60;;;3.05;;
40807;SDS011;26523;52.504;13.498;2022-10-26T16:59:31;6.20;;;3.00;;
40807;SDS011;26523;52.504;13.498;2022-10-26T17:01:57;22.58;;;7.28;;
40807;SDS011;26523;52.504;13.498;2022-10-26T17:04:23;10.73;;;4.53;;
40807;SDS011;26523;52.504;13.498;2022-10-26T17:06:48;15.23;;;5.35;;
40807;SDS011;26523;52.504;13.498;2022-10-26T17:09:14;14.02;;;4.82;;